sensor_id;sensor_type;location;lat;lon;timestamp;P1;P2;P0
76679;PMS5003;65597;51.520;-0.224;2023-02-11T00:01:46;24;22;
76679;PMS5003;65597;51.520;-0.224;2023-02-11T00:04:11;29;24;
76679;PMS5003;65597;51.520;-0.224;2023-02-11T00:06:37;23;22;
76679;PMS5003;65597;51.520;-0.224;2023-02-11T00:09:03;32;26;
76679;PMS5003;65597;51.520;-0.224;2023-02-11T00:11:28;22;20;
76679;PMS5003;65597;51.520;-0.224;2023-02-11T00:13:53;22;22;
76679;PMS5003;65597;51.520;-0.224;2023-02-11T00:16:19;21;20;
76679;PMS5003;65597;51.520;-0.224;2023-02-11T00:18:45;27;23;
76679;PMS5003;65597;51.520;-0.224;2023-02-11T00:21:11;26;24;
76679;PMS5003;65597;51.520;-0.224;2023-02-11T00:23:36;25;21;
76679;PMS5003;65597;51.520;-0.224;2023-02-11T00:26:01;23;21;
76679;PMS5003;65597;51.520;-0.224;2023-02-11T00:28:26;25;22;
76679;PMS5003;65597;51.520;-0.224;2023-02-11T00:30:53;25;25;
76679;PMS5003;65597;51.520;-0.224;2023-02-11T00:33:17;23;21;
76679;PMS5003;65597;51.520;-0.224;2023-02-11T00:35:42;23;22;
76679;PMS5003;65597;51.520;-0.224;2023-02-11T00:38:07;26;23;
76679;PMS5003;65597;51.520;-0.224;2023-02-11T00:40:33;23;23;
76679;PMS5003;65597;51.520;-0.224;2023-02-11T00:43:00;25;23;
76679;PMS5003;65597;51.520;-0.224;2023-02-11T00:45:24;24;23;
76679;PMS5003;65597;51.520;-0.224;2023-02-11T00:47:50;32;27;
76679;PMS5003;65597;51.520;-0.224;2023-02-11T00:50:15;26;25;
76679;PMS5003;65597;51.520;-0.224;2023-02-11T00:52:40;28;25;
76679;PMS5003;65597;51.520;-0.224;2023-02-11T00:55:06;31;27;
76679;PMS5003;65597;51.520;-0.224;2023-02-11T00:57:31;29;26;
76679;PMS5003;65597;51.520;-0.224;2023-02-11T00:59:56;28;25;
76679;PMS5003;65597;51.520;-0.224;2023-02-11T01:02:22;20;18;
76679;PMS5003;65597;51.520;-0.224;2023-02-11T01:04:47;31;26;
76679;PMS5003;65597;51.520;-0.224;2023-02-11T01:07:13;32;27;
76679;PMS5003;65597;51.520;-0.224;2023-02-11T01:09:38;23;22;
76679;PMS5003;65597;51.520;-0.224;2023-02-11T01:12:03;25;23;
76679;PMS5003;65597;51.520;-0.224;2023-02-11T01:14:29;32;27;
76679;PMS5003;65597;51.520;-0.224;2023-02-11T01:16:55;24;23;
76679;PMS5003;65597;51.520;-0.224;2023-02-11T01:19:21;28;26;
76679;PMS5003;65597;51.520;-0.224;2023-02-11T01:21:46;23;22;
76679;PMS5003;65597;51.520;-0.224;2023-02-11T01:24:12;27;22;
76679;PMS5003;65597;51.520;-0.224;2023-02-11T01:26:37;27;26;
76679;PMS5003;65597;51.520;-0.224;2023-02-11T01:29:03;24;22;
76679;PMS5003;65597;51.520;-0.224;2023-02-11T01:31:30;25;23;
76679;PMS5003;65597;51.520;-0.224;2023-02-11T01:33:54;26;25;
76679;PMS5003;65597;51.520;-0.224;2023-02-11T01:36:19;26;23;
76679;PMS5003;65597;51.520;-0.224;2023-02-11T01:38:44;32;24;
76679;PMS5003;65597;51.520;-0.224;2023-02-11T01:41:11;21;21;
76679;PMS5003;65597;51.520;-0.224;2023-02-11T01:43:37;32;27;
76679;PMS5003;65597;51.520;-0.224;2023-02-11T01:46:13;24;23;
76679;PMS5003;65597;51.520;-0.224;2023-02-11T01:48:28;26;25;
76679;PMS5003;65597;51.520;-0.224;2023-02-11T01:50:53;24;21;
76679;PMS5003;65597;51.520;-0.224;2023-02-11T01:53:18;22;20;
76679;PMS5003;65597;51.520;-0.224;2023-02-11T01:55:45;23;21;
76679;PMS5003;65597;51.520;-0.224;2023-02-11T01:58:09;23;22;
76679;PMS5003;65597;51.520;-0.224;2023-02-11T02:00:35;21;21;
76679;PMS5003;65597;51.520;-0.224;2023-02-11T02:03:01;26;24;
76679;PMS5003;65597;51.520;-0.224;2023-02-11T02:05:27;27;23;
76679;PMS5003;65597;51.520;-0.224;2023-02-11T02:07:55;22;22;
76679;PMS5003;65597;51.520;-0.224;2023-02-11T02:10:18;28;23;
76679;PMS5003;65597;51.520;-0.224;2023-02-11T02:12:42;22;22;
76679;PMS5003;65597;51.520;-0.224;2023-02-11T02:17:35;31;26;
76679;PMS5003;65597;51.520;-0.224;2023-02-11T02:20:02;26;24;
76679;PMS5003;65597;51.520;-0.224;2023-02-11T02:22:33;24;23;
76679;PMS5003;65597;51.520;-0.224;2023-02-11T02:24:57;22;21;
76679;PMS5003;65597;51.520;-0.224;2023-02-11T02:27:22;25;24;
76679;PMS5003;65597;51.520;-0.224;2023-02-11T02:34:33;21;19;
76679;PMS5003;65597;51.520;-0.224;2023-02-11T02:36:59;26;23;
76679;PMS5003;65597;51.520;-0.224;2023-02-11T02:39:23;35;30;
76679;PMS5003;65597;51.520;-0.224;2023-02-11T02:41:48;40;35;
76679;PMS5003;65597;51.520;-0.224;2023-02-11T02:44:15;36;35;
76679;PMS5003;65597;51.520;-0.224;2023-02-11T02:46:39;36;33;
76679;PMS5003;65597;51.520;-0.224;2023-02-11T02:49:05;44;36;
76679;PMS5003;65597;51.520;-0.224;2023-02-11T02:51:41;38;33;
76679;PMS5003;65597;51.520;-0.224;2023-02-11T02:53:58;39;37;
76679;PMS5003;65597;51.520;-0.224;2023-02-11T02:56:22;40;32;
76679;PMS5003;65597;51.520;-0.224;2023-02-11T02:58:51;51;45;
76679;PMS5003;65597;51.520;-0.224;2023-02-11T03:01:13;48;42;
76679;PMS5003;65597;51.520;-0.224;2023-02-11T03:03:39;49;42;
76679;PMS5003;65597;51.520;-0.224;2023-02-11T03:06:04;41;41;
76679;PMS5003;65597;51.520;-0.224;2023-02-11T03:08:31;38;38;
76679;PMS5003;65597;51.520;-0.224;2023-02-11T03:10:54;40;36;
76679;PMS5003;65597;51.520;-0.224;2023-02-11T03:13:19;43;39;
76679;PMS5003;65597;51.520;-0.224;2023-02-11T03:15:45;39;34;
76679;PMS5003;65597;51.520;-0.224;2023-02-11T03:18:11;33;32;
76679;PMS5003;65597;51.520;-0.224;2023-02-11T03:20:36;38;31;
76679;PMS5003;65597;51.520;-0.224;2023-02-11T03:23:03;36;29;
76679;PMS5003;65597;51.520;-0.224;2023-02-11T03:25:27;32;32;
76679;PMS5003;65597;51.520;-0.224;2023-02-11T03:27:51;37;33;
76679;PMS5003;65597;51.520;-0.224;2023-02-11T03:30:17;36;29;
76679;PMS5003;65597;51.520;-0.224;2023-02-11T03:32:44;35;30;
76679;PMS5003;65597;51.520;-0.224;2023-02-11T03:35:09;33;30;
76679;PMS5003;65597;51.520;-0.224;2023-02-11T03:37:34;27;25;
76679;PMS5003;65597;51.520;-0.224;2023-02-11T03:39:59;24;24;
76679;PMS5003;65597;51.520;-0.224;2023-02-11T03:42:23;30;28;
76679;PMS5003;65597;51.520;-0.224;2023-02-11T03:44:50;21;21;
76679;PMS5003;65597;51.520;-0.224;2023-02-11T03:47:14;18;17;
76679;PMS5003;65597;51.520;-0.224;2023-02-11T03:49:39;20;18;
76679;PMS5003;65597;51.520;-0.224;2023-02-11T03:52:05;21;19;
76679;PMS5003;65597;51.520;-0.224;2023-02-11T03:54:30;20;19;
76679;PMS5003;65597;51.520;-0.224;2023-02-11T03:56:56;27;21;
76679;PMS5003;65597;51.520;-0.224;2023-02-11T03:59:21;20;17;
76679;PMS5003;65597;51.520;-0.224;2023-02-11T04:01:47;23;22;
76679;PMS5003;65597;51.520;-0.224;2023-02-11T04:04:12;26;21;
76679;PMS5003;65597;51.520;-0.224;2023-02-11T04:06:37;22;21;
76679;PMS5003;65597;51.520;-0.224;2023-02-11T04:09:03;20;18;
76679;PMS5003;65597;51.520;-0.224;2023-02-11T04:11:27;26;21;
76679;PMS5003;65597;51.520;-0.224;2023-02-11T04:13:53;18;18;
76679;PMS5003;65597;51.520;-0.224;2023-02-11T04:16:18;19;18;
76679;PMS5003;65597;51.520;-0.224;2023-02-11T04:18:44;23;21;
76679;PMS5003;65597;51.520;-0.224;2023-02-11T04:21:09;20;19;
76679;PMS5003;65597;51.520;-0.224;2023-02-11T04:23:35;22;20;
76679;PMS5003;65597;51.520;-0.224;2023-02-11T04:26:00;23;18;
76679;PMS5003;65597;51.520;-0.224;2023-02-11T04:28:25;23;22;
76679;PMS5003;65597;51.520;-0.224;2023-02-11T04:30:51;21;19;
76679;PMS5003;65597;51.520;-0.224;2023-02-11T04:33:18;20;19;
76679;PMS5003;65597;51.520;-0.224;2023-02-11T04:35:42;18;18;
76679;PMS5003;65597;51.520;-0.224;2023-02-11T04:38:07;27;24;
76679;PMS5003;65597;51.520;-0.224;2023-02-11T04:40:32;23;19;
76679;PMS5003;65597;51.520;-0.224;2023-02-11T04:42:58;16;15;
76679;PMS5003;65597;51.520;-0.224;2023-02-11T04:45:24;17;17;
76679;PMS5003;65597;51.520;-0.224;2023-02-11T04:47:49;17;17;
76679;PMS5003;65597;51.520;-0.224;2023-02-11T04:50:14;20;17;
76679;PMS5003;65597;51.520;-0.224;2023-02-11T04:52:40;20;19;
76679;PMS5003;65597;51.520;-0.224;2023-02-11T04:55:06;19;18;
76679;PMS5003;65597;51.520;-0.224;2023-02-11T04:57:32;18;17;
76679;PMS5003;65597;51.520;-0.224;2023-02-11T04:59:56;23;19;
76679;PMS5003;65597;51.520;-0.224;2023-02-11T05:02:22;20;18;
76679;PMS5003;65597;51.520;-0.224;2023-02-11T05:04:47;24;20;
76679;PMS5003;65597;51.520;-0.224;2023-02-11T05:07:12;20;18;
76679;PMS5003;65597;51.520;-0.224;2023-02-11T05:09:38;18;16;
76679;PMS5003;65597;51.520;-0.224;2023-02-11T05:12:04;23;19;
76679;PMS5003;65597;51.520;-0.224;2023-02-11T05:14:29;16;16;
76679;PMS5003;65597;51.520;-0.224;2023-02-11T05:16:54;18;17;
76679;PMS5003;65597;51.520;-0.224;2023-02-11T05:19:20;21;18;
76679;PMS5003;65597;51.520;-0.224;2023-02-11T05:21:46;16;15;
76679;PMS5003;65597;51.520;-0.224;2023-02-11T05:24:11;16;16;
76679;PMS5003;65597;51.520;-0.224;2023-02-11T05:26:36;17;17;
76679;PMS5003;65597;51.520;-0.224;2023-02-11T05:29:01;17;16;
76679;PMS5003;65597;51.520;-0.224;2023-02-11T05:31:27;19;18;
76679;PMS5003;65597;51.520;-0.224;2023-02-11T05:33:52;19;15;
76679;PMS5003;65597;51.520;-0.224;2023-02-11T05:36:18;19;18;
76679;PMS5003;65597;51.520;-0.224;2023-02-11T05:38:43;19;16;
76679;PMS5003;65597;51.520;-0.224;2023-02-11T05:41:09;17;15;
76679;PMS5003;65597;51.520;-0.224;2023-02-11T05:43:34;18;17;
76679;PMS5003;65597;51.520;-0.224;2023-02-11T05:46:01;15;14;
76679;PMS5003;65597;51.520;-0.224;2023-02-11T05:48:24;15;15;
76679;PMS5003;65597;51.520;-0.224;2023-02-11T05:50:51;19;16;
76679;PMS5003;65597;51.520;-0.224;2023-02-11T05:53:16;16;13;
76679;PMS5003;65597;51.520;-0.224;2023-02-11T05:55:41;19;15;
76679;PMS5003;65597;51.520;-0.224;2023-02-11T05:58:09;15;15;
76679;PMS5003;65597;51.520;-0.224;2023-02-11T06:00:33;17;16;
76679;PMS5003;65597;51.520;-0.224;2023-02-11T06:02:59;14;14;
76679;PMS5003;65597;51.520;-0.224;2023-02-11T06:05:24;14;14;
76679;PMS5003;65597;51.520;-0.224;2023-02-11T06:07:50;14;14;
76679;PMS5003;65597;51.520;-0.224;2023-02-11T06:10:17;13;12;
76679;PMS5003;65597;51.520;-0.224;2023-02-11T06:12:41;21;15;
76679;PMS5003;65597;51.520;-0.224;2023-02-11T06:15:06;14;13;
76679;PMS5003;65597;51.520;-0.224;2023-02-11T06:17:31;13;12;
76679;PMS5003;65597;51.520;-0.224;2023-02-11T06:19:57;14;13;
76679;PMS5003;65597;51.520;-0.224;2023-02-11T06:22:23;14;14;
76679;PMS5003;65597;51.520;-0.224;2023-02-11T06:24:47;14;13;
76679;PMS5003;65597;51.520;-0.224;2023-02-11T06:27:13;12;12;
76679;PMS5003;65597;51.520;-0.224;2023-02-11T06:29:38;17;15;
76679;PMS5003;65597;51.520;-0.224;2023-02-11T06:32:04;15;14;
76679;PMS5003;65597;51.520;-0.224;2023-02-11T06:34:32;16;14;
76679;PMS5003;65597;51.520;-0.224;2023-02-11T06:36:55;15;14;
76679;PMS5003;65597;51.520;-0.224;2023-02-11T06:39:20;12;12;
76679;PMS5003;65597;51.520;-0.224;2023-02-11T06:41:46;12;11;
76679;PMS5003;65597;51.520;-0.224;2023-02-11T06:44:12;12;11;
76679;PMS5003;65597;51.520;-0.224;2023-02-11T06:46:38;12;12;
76679;PMS5003;65597;51.520;-0.224;2023-02-11T06:49:08;13;12;
76679;PMS5003;65597;51.520;-0.224;2023-02-11T06:51:28;11;10;
76679;PMS5003;65597;51.520;-0.224;2023-02-11T06:53:54;18;13;
76679;PMS5003;65597;51.520;-0.224;2023-02-11T06:56:20;13;11;
76679;PMS5003;65597;51.520;-0.224;2023-02-11T06:58:45;12;12;
76679;PMS5003;65597;51.520;-0.224;2023-02-11T07:01:11;14;12;
76679;PMS5003;65597;51.520;-0.224;2023-02-11T07:03:36;10;10;
76679;PMS5003;65597;51.520;-0.224;2023-02-11T07:06:01;9;9;
76679;PMS5003;65597;51.520;-0.224;2023-02-11T07:08:27;11;11;
76679;PMS5003;65597;51.520;-0.224;2023-02-11T07:10:54;13;12;
76679;PMS5003;65597;51.520;-0.224;2023-02-11T07:13:17;12;11;
76679;PMS5003;65597;51.520;-0.224;2023-02-11T07:15:43;16;15;
76679;PMS5003;65597;51.520;-0.224;2023-02-11T07:18:09;12;11;
76679;PMS5003;65597;51.520;-0.224;2023-02-11T07:20:35;12;11;
76679;PMS5003;65597;51.520;-0.224;2023-02-11T07:23:01;10;9;
76679;PMS5003;65597;51.520;-0.224;2023-02-11T07:25:26;14;12;
76679;PMS5003;65597;51.520;-0.224;2023-02-11T07:27:51;11;10;
76679;PMS5003;65597;51.520;-0.224;2023-02-11T07:30:17;13;11;
76679;PMS5003;65597;51.520;-0.224;2023-02-11T07:32:42;11;10;
76679;PMS5003;65597;51.520;-0.224;2023-02-11T07:35:09;13;11;
76679;PMS5003;65597;51.520;-0.224;2023-02-11T07:37:33;13;11;
76679;PMS5003;65597;51.520;-0.224;2023-02-11T07:39:58;10;10;
76679;PMS5003;65597;51.520;-0.224;2023-02-11T07:42:24;9;8;
76679;PMS5003;65597;51.520;-0.224;2023-02-11T07:44:49;10;9;
76679;PMS5003;65597;51.520;-0.224;2023-02-11T07:47:15;11;11;
76679;PMS5003;65597;51.520;-0.224;2023-02-11T07:49:40;13;11;
76679;PMS5003;65597;51.520;-0.224;2023-02-11T07:52:06;16;12;
76679;PMS5003;65597;51.520;-0.224;2023-02-11T07:54:32;12;11;
76679;PMS5003;65597;51.520;-0.224;2023-02-11T07:56:57;11;11;
76679;PMS5003;65597;51.520;-0.224;2023-02-11T07:59:23;12;10;
76679;PMS5003;65597;51.520;-0.224;2023-02-11T08:01:48;12;11;
76679;PMS5003;65597;51.520;-0.224;2023-02-11T08:04:13;14;14;
76679;PMS5003;65597;51.520;-0.224;2023-02-11T08:06:39;13;11;
76679;PMS5003;65597;51.520;-0.224;2023-02-11T08:09:05;13;12;
76679;PMS5003;65597;51.520;-0.224;2023-02-11T08:11:29;14;13;
76679;PMS5003;65597;51.520;-0.224;2023-02-11T08:13:55;15;15;
76679;PMS5003;65597;51.520;-0.224;2023-02-11T08:16:21;13;11;
76679;PMS5003;65597;51.520;-0.224;2023-02-11T08:18:46;15;13;
76679;PMS5003;65597;51.520;-0.224;2023-02-11T08:21:11;11;10;
76679;PMS5003;65597;51.520;-0.224;2023-02-11T08:23:38;11;10;
76679;PMS5003;65597;51.520;-0.224;2023-02-11T08:26:02;13;12;
76679;PMS5003;65597;51.520;-0.224;2023-02-11T08:28:27;13;12;
76679;PMS5003;65597;51.520;-0.224;2023-02-11T08:30:53;10;10;
76679;PMS5003;65597;51.520;-0.224;2023-02-11T08:33:18;13;13;
76679;PMS5003;65597;51.520;-0.224;2023-02-11T08:35:44;15;12;
76679;PMS5003;65597;51.520;-0.224;2023-02-11T08:38:09;8;7;
76679;PMS5003;65597;51.520;-0.224;2023-02-11T08:40:34;12;11;
76679;PMS5003;65597;51.520;-0.224;2023-02-11T08:42:59;12;12;
76679;PMS5003;65597;51.520;-0.224;2023-02-11T08:45:25;12;11;
76679;PMS5003;65597;51.520;-0.224;2023-02-11T08:47:51;13;11;
76679;PMS5003;65597;51.520;-0.224;2023-02-11T08:50:15;12;11;
76679;PMS5003;65597;51.520;-0.224;2023-02-11T08:52:41;11;11;
76679;PMS5003;65597;51.520;-0.224;2023-02-11T08:55:07;9;8;
76679;PMS5003;65597;51.520;-0.224;2023-02-11T08:57:32;13;10;
76679;PMS5003;65597;51.520;-0.224;2023-02-11T08:59:57;9;9;
76679;PMS5003;65597;51.520;-0.224;2023-02-11T09:02:22;12;11;
76679;PMS5003;65597;51.520;-0.224;2023-02-11T09:04:48;8;8;
76679;PMS5003;65597;51.520;-0.224;2023-02-11T09:07:13;11;10;
76679;PMS5003;65597;51.520;-0.224;2023-02-11T09:09:39;11;10;
76679;PMS5003;65597;51.520;-0.224;2023-02-11T09:12:04;12;10;
76679;PMS5003;65597;51.520;-0.224;2023-02-11T09:14:30;10;10;
76679;PMS5003;65597;51.520;-0.224;2023-02-11T09:16:55;8;8;
76679;PMS5003;65597;51.520;-0.224;2023-02-11T09:19:21;11;9;
76679;PMS5003;65597;51.520;-0.224;2023-02-11T09:21:46;13;12;
76679;PMS5003;65597;51.520;-0.224;2023-02-11T09:24:12;11;9;
76679;PMS5003;65597;51.520;-0.224;2023-02-11T09:26:37;9;9;
76679;PMS5003;65597;51.520;-0.224;2023-02-11T09:29:03;10;8;
76679;PMS5003;65597;51.520;-0.224;2023-02-11T09:31:29;12;9;
76679;PMS5003;65597;51.520;-0.224;2023-02-11T09:33:54;10;9;
76679;PMS5003;65597;51.520;-0.224;2023-02-11T09:36:20;8;7;
76679;PMS5003;65597;51.520;-0.224;2023-02-11T09:38:43;9;7;
76679;PMS5003;65597;51.520;-0.224;2023-02-11T09:41:16;9;9;
76679;PMS5003;65597;51.520;-0.224;2023-02-11T09:43:35;6;6;
76679;PMS5003;65597;51.520;-0.224;2023-02-11T09:45:59;9;8;
76679;PMS5003;65597;51.520;-0.224;2023-02-11T09:48:25;6;6;
76679;PMS5003;65597;51.520;-0.224;2023-02-11T09:50:51;9;8;
76679;PMS5003;65597;51.520;-0.224;2023-02-11T09:53:17;11;11;
76679;PMS5003;65597;51.520;-0.224;2023-02-11T09:55:42;8;8;
76679;PMS5003;65597;51.520;-0.224;2023-02-11T09:58:10;9;9;
76679;PMS5003;65597;51.520;-0.224;2023-02-11T10:00:35;9;9;
76679;PMS5003;65597;51.520;-0.224;2023-02-11T10:03:07;10;9;
76679;PMS5003;65597;51.520;-0.224;2023-02-11T10:05:26;7;7;
76679;PMS5003;65597;51.520;-0.224;2023-02-11T10:07:50;8;8;
76679;PMS5003;65597;51.520;-0.224;2023-02-11T10:10:16;10;9;
76679;PMS5003;65597;51.520;-0.224;2023-02-11T10:12:46;7;6;
76679;PMS5003;65597;51.520;-0.224;2023-02-11T10:15:07;8;8;
76679;PMS5003;65597;51.520;-0.224;2023-02-11T10:17:32;6;6;
76679;PMS5003;65597;51.520;-0.224;2023-02-11T10:20:00;14;11;
76679;PMS5003;65597;51.520;-0.224;2023-02-11T10:22:21;9;9;
76679;PMS5003;65597;51.520;-0.224;2023-02-11T10:24:49;10;9;
76679;PMS5003;65597;51.520;-0.224;2023-02-11T10:27:14;8;8;
76679;PMS5003;65597;51.520;-0.224;2023-02-11T10:29:39;7;7;
76679;PMS5003;65597;51.520;-0.224;2023-02-11T10:32:04;7;7;
76679;PMS5003;65597;51.520;-0.224;2023-02-11T10:34:28;7;5;
76679;PMS5003;65597;51.520;-0.224;2023-02-11T10:36:54;7;7;
76679;PMS5003;65597;51.520;-0.224;2023-02-11T10:39:20;6;5;
76679;PMS5003;65597;51.520;-0.224;2023-02-11T10:41:45;7;7;
76679;PMS5003;65597;51.520;-0.224;2023-02-11T10:44:15;7;6;
76679;PMS5003;65597;51.520;-0.224;2023-02-11T10:46:35;5;5;
76679;PMS5003;65597;51.520;-0.224;2023-02-11T10:49:02;8;6;
76679;PMS5003;65597;51.520;-0.224;2023-02-11T10:51:27;6;6;
76679;PMS5003;65597;51.520;-0.224;2023-02-11T10:54:08;6;6;
76679;PMS5003;65597;51.520;-0.224;2023-02-11T10:56:20;8;6;
76679;PMS5003;65597;51.520;-0.224;2023-02-11T10:58:43;10;6;
76679;PMS5003;65597;51.520;-0.224;2023-02-11T11:01:08;7;6;
76679;PMS5003;65597;51.520;-0.224;2023-02-11T11:03:35;5;5;
76679;PMS5003;65597;51.520;-0.224;2023-02-11T11:05:59;7;6;
76679;PMS5003;65597;51.520;-0.224;2023-02-11T11:13:23;7;6;
76679;PMS5003;65597;51.520;-0.224;2023-02-11T11:15:41;8;6;
76679;PMS5003;65597;51.520;-0.224;2023-02-11T11:18:08;6;5;
76679;PMS5003;65597;51.520;-0.224;2023-02-11T11:20:32;6;6;
76679;PMS5003;65597;51.520;-0.224;2023-02-11T11:25:25;4;4;
76679;PMS5003;65597;51.520;-0.224;2023-02-11T11:27:48;8;8;
76679;PMS5003;65597;51.520;-0.224;2023-02-11T11:30:13;12;6;
76679;PMS5003;65597;51.520;-0.224;2023-02-11T11:32:38;6;5;
76679;PMS5003;65597;51.520;-0.224;2023-02-11T11:35:06;8;5;
76679;PMS5003;65597;51.520;-0.224;2023-02-11T11:37:30;5;5;
76679;PMS5003;65597;51.520;-0.224;2023-02-11T11:39:56;7;6;
76679;PMS5003;65597;51.520;-0.224;2023-02-11T11:42:23;6;6;
76679;PMS5003;65597;51.520;-0.224;2023-02-11T11:44:46;6;6;
76679;PMS5003;65597;51.520;-0.224;2023-02-11T11:47:17;6;6;
76679;PMS5003;65597;51.520;-0.224;2023-02-11T11:49:40;7;5;
76679;PMS5003;65597;51.520;-0.224;2023-02-11T11:52:07;9;8;
76679;PMS5003;65597;51.520;-0.224;2023-02-11T11:54:28;6;6;
76679;PMS5003;65597;51.520;-0.224;2023-02-11T11:56:54;4;4;
76679;PMS5003;65597;51.520;-0.224;2023-02-11T11:59:19;6;6;
76679;PMS5003;65597;51.520;-0.224;2023-02-11T12:01:49;9;7;
76679;PMS5003;65597;51.520;-0.224;2023-02-11T12:06:38;6;6;
76679;PMS5003;65597;51.520;-0.224;2023-02-11T12:09:03;7;7;
76679;PMS5003;65597;51.520;-0.224;2023-02-11T12:11:28;5;5;
76679;PMS5003;65597;51.520;-0.224;2023-02-11T12:13:58;9;5;
76679;PMS5003;65597;51.520;-0.224;2023-02-11T12:16:19;6;5;
76679;PMS5003;65597;51.520;-0.224;2023-02-11T12:18:46;7;6;
76679;PMS5003;65597;51.520;-0.224;2023-02-11T12:21:11;7;7;
76679;PMS5003;65597;51.520;-0.224;2023-02-11T12:23:37;5;4;
76679;PMS5003;65597;51.520;-0.224;2023-02-11T12:26:00;6;6;
76679;PMS5003;65597;51.520;-0.224;2023-02-11T12:28:27;5;5;
76679;PMS5003;65597;51.520;-0.224;2023-02-11T12:30:55;8;8;
76679;PMS5003;65597;51.520;-0.224;2023-02-11T12:33:17;6;5;
76679;PMS5003;65597;51.520;-0.224;2023-02-11T12:35:42;8;7;
76679;PMS5003;65597;51.520;-0.224;2023-02-11T12:38:17;6;5;
76679;PMS5003;65597;51.520;-0.224;2023-02-11T12:40:32;7;7;
76679;PMS5003;65597;51.520;-0.224;2023-02-11T12:43:00;6;6;
76679;PMS5003;65597;51.520;-0.224;2023-02-11T12:45:26;9;6;
76679;PMS5003;65597;51.520;-0.224;2023-02-11T12:47:52;8;8;
76679;PMS5003;65597;51.520;-0.224;2023-02-11T12:50:16;7;7;
76679;PMS5003;65597;51.520;-0.224;2023-02-11T12:52:43;8;7;
76679;PMS5003;65597;51.520;-0.224;2023-02-11T12:55:06;9;8;
76679;PMS5003;65597;51.520;-0.224;2023-02-11T12:57:30;16;13;
76679;PMS5003;65597;51.520;-0.224;2023-02-11T12:59:57;18;17;
76679;PMS5003;65597;51.520;-0.224;2023-02-11T13:02:26;14;13;
76679;PMS5003;65597;51.520;-0.224;2023-02-11T13:04:48;13;13;
76679;PMS5003;65597;51.520;-0.224;2023-02-11T13:07:13;17;17;
76679;PMS5003;65597;51.520;-0.224;2023-02-11T13:09:39;21;17;
76679;PMS5003;65597;51.520;-0.224;2023-02-11T13:12:02;18;15;
76679;PMS5003;65597;51.520;-0.224;2023-02-11T13:14:28;8;8;
76679;PMS5003;65597;51.520;-0.224;2023-02-11T13:16:53;7;7;
76679;PMS5003;65597;51.520;-0.224;2023-02-11T13:19:20;8;7;
76679;PMS5003;65597;51.520;-0.224;2023-02-11T13:21:48;8;8;
76679;PMS5003;65597;51.520;-0.224;2023-02-11T13:24:16;6;6;
76679;PMS5003;65597;51.520;-0.224;2023-02-11T13:26:38;10;8;
76679;PMS5003;65597;51.520;-0.224;2023-02-11T13:29:04;8;7;
76679;PMS5003;65597;51.520;-0.224;2023-02-11T13:31:26;7;7;
76679;PMS5003;65597;51.520;-0.224;2023-02-11T13:33:51;13;11;
76679;PMS5003;65597;51.520;-0.224;2023-02-11T13:36:23;8;8;
76679;PMS5003;65597;51.520;-0.224;2023-02-11T13:38:52;6;6;
76679;PMS5003;65597;51.520;-0.224;2023-02-11T13:43:34;6;6;
76679;PMS5003;65597;51.520;-0.224;2023-02-11T13:45:59;8;6;
76679;PMS5003;65597;51.520;-0.224;2023-02-11T13:48:24;9;9;
76679;PMS5003;65597;51.520;-0.224;2023-02-11T13:50:52;7;6;
76679;PMS5003;65597;51.520;-0.224;2023-02-11T13:53:15;8;8;
76679;PMS5003;65597;51.520;-0.224;2023-02-11T13:55:40;7;5;
76679;PMS5003;65597;51.520;-0.224;2023-02-11T13:58:15;5;5;
76679;PMS5003;65597;51.520;-0.224;2023-02-11T14:05:25;6;6;
76679;PMS5003;65597;51.520;-0.224;2023-02-11T14:12:37;7;5;
76679;PMS5003;65597;51.520;-0.224;2023-02-11T14:17:29;7;7;
76679;PMS5003;65597;51.520;-0.224;2023-02-11T14:19:54;16;12;
76679;PMS5003;65597;51.520;-0.224;2023-02-11T14:22:22;10;8;
76679;PMS5003;65597;51.520;-0.224;2023-02-11T14:24:47;6;6;
76679;PMS5003;65597;51.520;-0.224;2023-02-11T14:27:13;6;6;
76679;PMS5003;65597;51.520;-0.224;2023-02-11T14:29:38;7;7;
76679;PMS5003;65597;51.520;-0.224;2023-02-11T14:32:03;8;8;
76679;PMS5003;65597;51.520;-0.224;2023-02-11T14:34:31;6;6;
76679;PMS5003;65597;51.520;-0.224;2023-02-11T14:36:56;6;5;
76679;PMS5003;65597;51.520;-0.224;2023-02-11T14:39:21;9;8;
76679;PMS5003;65597;51.520;-0.224;2023-02-11T14:41:44;5;5;
76679;PMS5003;65597;51.520;-0.224;2023-02-11T14:44:12;7;7;
76679;PMS5003;65597;51.520;-0.224;2023-02-11T14:46:34;7;7;
76679;PMS5003;65597;51.520;-0.224;2023-02-11T14:49:00;8;7;
76679;PMS5003;65597;51.520;-0.224;2023-02-11T14:51:25;6;6;
76679;PMS5003;65597;51.520;-0.224;2023-02-11T14:53:51;7;7;
76679;PMS5003;65597;51.520;-0.224;2023-02-11T14:56:17;7;6;
76679;PMS5003;65597;51.520;-0.224;2023-02-11T14:58:44;7;7;
76679;PMS5003;65597;51.520;-0.224;2023-02-11T15:03:34;9;7;
76679;PMS5003;65597;51.520;-0.224;2023-02-11T15:05:58;5;4;
76679;PMS5003;65597;51.520;-0.224;2023-02-11T15:08:23;5;5;
76679;PMS5003;65597;51.520;-0.224;2023-02-11T15:10:48;6;6;
76679;PMS5003;65597;51.520;-0.224;2023-02-11T15:13:15;7;5;
76679;PMS5003;65597;51.520;-0.224;2023-02-11T15:15:41;5;5;
76679;PMS5003;65597;51.520;-0.224;2023-02-11T15:18:05;5;5;
76679;PMS5003;65597;51.520;-0.224;2023-02-11T15:20:31;7;7;
76679;PMS5003;65597;51.520;-0.224;2023-02-11T15:22:56;8;7;
76679;PMS5003;65597;51.520;-0.224;2023-02-11T15:25:21;7;7;
76679;PMS5003;65597;51.520;-0.224;2023-02-11T15:27:49;7;7;
76679;PMS5003;65597;51.520;-0.224;2023-02-11T15:32:37;8;7;
76679;PMS5003;65597;51.520;-0.224;2023-02-11T15:35:03;6;6;
76679;PMS5003;65597;51.520;-0.224;2023-02-11T15:37:28;7;6;
76679;PMS5003;65597;51.520;-0.224;2023-02-11T15:39:54;7;7;
76679;PMS5003;65597;51.520;-0.224;2023-02-11T15:42:20;6;6;
76679;PMS5003;65597;51.520;-0.224;2023-02-11T15:44:44;5;5;
76679;PMS5003;65597;51.520;-0.224;2023-02-11T15:47:10;9;8;
76679;PMS5003;65597;51.520;-0.224;2023-02-11T15:49:35;6;6;
76679;PMS5003;65597;51.520;-0.224;2023-02-11T15:52:03;7;7;
76679;PMS5003;65597;51.520;-0.224;2023-02-11T15:54:27;7;6;
76679;PMS5003;65597;51.520;-0.224;2023-02-11T15:56:52;7;6;
76679;PMS5003;65597;51.520;-0.224;2023-02-11T15:59:18;8;8;
76679;PMS5003;65597;51.520;-0.224;2023-02-11T16:01:42;7;7;
76679;PMS5003;65597;51.520;-0.224;2023-02-11T16:04:12;9;8;
76679;PMS5003;65597;51.520;-0.224;2023-02-11T16:06:34;6;6;
76679;PMS5003;65597;51.520;-0.224;2023-02-11T16:09:00;5;5;
76679;PMS5003;65597;51.520;-0.224;2023-02-11T16:11:25;9;8;
76679;PMS5003;65597;51.520;-0.224;2023-02-11T16:13:50;6;6;
76679;PMS5003;65597;51.520;-0.224;2023-02-11T16:16:17;6;6;
76679;PMS5003;65597;51.520;-0.224;2023-02-11T16:18:42;9;7;
76679;PMS5003;65597;51.520;-0.224;2023-02-11T16:21:14;6;6;
76679;PMS5003;65597;51.520;-0.224;2023-02-11T16:23:32;6;6;
76679;PMS5003;65597;51.520;-0.224;2023-02-11T16:25:59;7;6;
76679;PMS5003;65597;51.520;-0.224;2023-02-11T16:28:22;7;7;
76679;PMS5003;65597;51.520;-0.224;2023-02-11T16:30:50;7;6;
76679;PMS5003;65597;51.520;-0.224;2023-02-11T16:33:13;7;7;
76679;PMS5003;65597;51.520;-0.224;2023-02-11T16:35:39;8;7;
76679;PMS5003;65597;51.520;-0.224;2023-02-11T16:38:04;8;7;